createdAt,value
2023-04-23T00:06:40.371Z,51.26
2023-04-23T00:16:47.127Z,51.50
2023-04-23T00:26:53.140Z,52.32
2023-04-23T00:36:58.868Z,52.66
2023-04-23T00:47:05.678Z,53.36
2023-04-23T00:57:11.788Z,53.64
2023-04-23T01:07:17.680Z,54.01
2023-04-23T01:17:24.114Z,54.35
2023-04-23T01:27:30.797Z,54.76
2023-04-23T01:37:39.297Z,55.36
2023-04-23T01:47:45.341Z,55.57
2023-04-23T01:57:51.272Z,55.90
2023-04-23T02:07:57.411Z,55.83
2023-04-23T02:18:03.197Z,56.14
2023-04-23T02:28:09.140Z,56.65
2023-04-23T02:38:15.004Z,57.13
2023-04-23T02:48:21.646Z,57.30
2023-04-23T02:58:27.272Z,57.69
2023-04-23T03:08:32.976Z,58.17
2023-04-23T03:18:38.713Z,58.55
2023-04-23T03:28:44.439Z,58.75
2023-04-23T03:38:50.253Z,59.09
2023-04-23T03:48:55.815Z,59.40
2023-04-23T03:59:01.719Z,59.33
2023-04-23T04:09:08.567Z,59.58
2023-04-23T04:19:14.541Z,59.43
2023-04-23T04:29:21.468Z,59.13
2023-04-23T04:39:27.213Z,58.68
2023-04-23T04:49:33.071Z,57.95
2023-04-23T04:59:38.857Z,57.59
2023-04-23T05:09:45.304Z,56.59
2023-04-23T05:19:51.749Z,49.35
2023-04-23T05:29:57.551Z,41.76
2023-04-23T05:40:06.601Z,35.79
2023-04-23T05:50:13.467Z,31.69
2023-04-23T06:00:19.800Z,28.07
2023-04-23T06:10:25.582Z,25.88
2023-04-23T06:20:32.216Z,23.80
2023-04-23T06:30:37.989Z,22.14
2023-04-23T06:40:44.024Z,20.90
2023-04-23T06:50:49.732Z,20.08
2023-04-23T07:00:55.666Z,18.99
2023-04-23T07:11:01.517Z,18.13
2023-04-23T07:21:07.316Z,17.91
2023-04-23T07:31:13.102Z,16.98
2023-04-23T07:41:18.942Z,16.57
2023-04-23T07:51:26.786Z,16.49
2023-04-23T08:01:33.319Z,16.09
2023-04-23T08:11:39.192Z,15.08
2023-04-23T08:21:44.959Z,14.59
2023-04-23T08:31:50.784Z,15.89
2023-04-23T08:41:57.247Z,19.00
2023-04-23T08:52:11.696Z,21.61
2023-04-23T09:02:19.543Z,23.80
2023-04-23T09:12:25.615Z,25.96
2023-04-23T09:22:47.582Z,26.24
2023-04-23T09:32:55.354Z,26.30
2023-04-23T09:43:04.753Z,26.79
2023-04-23T09:53:11.471Z,27.47
2023-04-23T10:03:17.274Z,27.74
2023-04-23T10:13:23.221Z,27.90
2023-04-23T10:23:29.989Z,26.85
2023-04-23T10:33:49.459Z,26.72
2023-04-23T10:44:02.357Z,26.99
2023-04-23T10:54:09.972Z,27.20
2023-04-23T11:04:26.368Z,27.50
2023-04-23T11:14:43.872Z,27.81
2023-04-23T11:24:50.975Z,28.06
2023-04-23T11:34:59.088Z,28.44
2023-04-23T11:45:06.186Z,28.38
2023-04-23T11:55:13.001Z,28.35
2023-04-23T12:05:20.492Z,28.53
2023-04-23T12:15:24.656Z,28.52
2023-04-23T12:25:31.039Z,28.09
2023-04-23T12:35:44.818Z,28.14
2023-04-23T12:45:52.066Z,28.35
2023-04-23T12:55:57.788Z,28.29
2023-04-23T13:06:03.462Z,28.17
2023-04-23T13:16:09.674Z,28.28
2023-04-23T13:26:15.703Z,28.52
2023-04-23T13:36:22.213Z,28.61
2023-04-23T13:46:27.997Z,28.90
2023-04-23T13:56:34.850Z,29.13
2023-04-23T14:06:40.495Z,29.01
2023-04-23T14:16:46.244Z,28.83
2023-04-23T14:26:51.940Z,29.01
2023-04-23T14:36:57.678Z,28.73
2023-04-23T14:47:03.966Z,28.47
2023-04-23T14:57:09.590Z,28.78
2023-04-23T15:07:15.378Z,28.65
2023-04-23T15:17:21.477Z,28.73
2023-04-23T15:27:27.596Z,28.94
2023-04-23T15:37:33.496Z,28.77
2023-04-23T15:47:40.053Z,28.94
2023-04-23T15:57:46.557Z,29.39
2023-04-23T16:07:52.717Z,29.70
2023-04-23T16:18:00.259Z,30.00
2023-04-23T16:28:05.071Z,30.59
2023-04-23T16:38:11.396Z,31.23
2023-04-23T16:48:19.871Z,32.15
2023-04-23T16:58:25.714Z,33.09
2023-04-23T17:08:31.468Z,34.22
2023-04-23T17:18:37.479Z,35.75
2023-04-23T17:28:43.503Z,37.24
2023-04-23T17:38:49.288Z,39.37
2023-04-23T17:48:55.166Z,41.03
2023-04-23T17:59:01.020Z,42.50
2023-04-23T18:09:06.871Z,43.69
2023-04-23T18:19:13.332Z,44.67
2023-04-23T18:29:19.944Z,46.22
2023-04-23T18:39:26.942Z,47.44
2023-04-23T18:49:45.791Z,48.60
2023-04-23T18:59:50.068Z,49.57
2023-04-23T19:09:56.177Z,51.11
2023-04-23T19:20:02.025Z,52.17
2023-04-23T19:30:10.472Z,53.47
2023-04-23T19:40:16.648Z,54.29
2023-04-23T19:50:23.705Z,55.44
2023-04-23T20:00:31.444Z,56.50
2023-04-23T20:10:37.228Z,57.63
2023-04-23T20:20:43.130Z,58.48
2023-04-23T20:30:48.887Z,59.43
2023-04-23T20:40:54.605Z,60.34
2023-04-23T20:51:00.896Z,60.96
2023-04-23T21:01:08.063Z,61.76
2023-04-23T21:11:17.731Z,62.43
2023-04-23T21:21:28.053Z,63.19
2023-04-23T21:31:43.680Z,63.76
2023-04-23T21:41:50.263Z,64.24
2023-04-23T21:51:56.091Z,65.04
2023-04-23T22:02:01.855Z,65.81
2023-04-23T22:12:08.276Z,66.28
2023-04-23T22:22:14.078Z,66.65
2023-04-23T22:32:19.814Z,66.07
2023-04-23T22:42:25.561Z,66.09
2023-04-23T22:52:31.614Z,66.43
2023-04-23T23:02:37.426Z,67.00
2023-04-23T23:12:43.211Z,67.32
2023-04-23T23:22:49.027Z,67.49
2023-04-23T23:32:54.802Z,67.47
2023-04-23T23:43:00.532Z,67.78
2023-04-23T23:53:06.221Z,68.09
